Time;durP1;ratioP1;P1;durP2;ratioP2;P2;SDS_P1;SDS_P2;PMS_P1;PMS_P2;Temp;Humidity;BMP_temperature;BMP_pressure;BME280_temperature;BME280_humidity;BME280_pressure;Samples;Min_cycle;Max_cycle;Signal;HPM_P1;HPM_P2
2022/03/10 00:00:12;;;;;;;1999.90;999.90;;;6.70;40.80;;;;;;5114383;28;20175;-72
2022/03/10 00:02:42;;;;;;;1999.90;999.90;;;6.70;42.10;;;;;;5112189;28;20185;-71
2022/03/10 00:05:13;;;;;;;1999.90;999.90;;;6.80;43.40;;;;;;5111923;28;20405;-71
2022/03/10 00:07:39;;;;;;;1999.90;999.90;;;6.70;42.30;;;;;;5110997;28;20407;-72
2022/03/10 00:10:06;;;;;;;1999.90;999.90;;;6.70;43.20;;;;;;5112124;28;20444;-71
2022/03/10 00:12:32;;;;;;;1999.90;999.90;;;6.60;43.70;;;;;;5112878;28;20427;-72
2022/03/10 00:14:58;;;;;;;1999.90;999.90;;;6.40;44.40;;;;;;5129347;28;20432;-73
2022/03/10 00:17:24;;;;;;;1999.90;999.90;;;6.30;43.90;;;;;;5116076;28;20459;-71
2022/03/10 00:19:49;;;;;;;1999.90;999.90;;;6.20;44.60;;;;;;5116036;28;20166;-71
2022/03/10 00:22:15;;;;;;;1999.90;999.90;;;6.00;45.90;;;;;;5129073;28;20424;-72
2022/03/10 00:24:41;;;;;;;1999.90;999.90;;;5.90;46.50;;;;;;5133808;28;20157;-73
2022/03/10 00:27:06;;;;;;;1999.90;999.90;;;5.90;47.90;;;;;;5135421;28;20166;-73
2022/03/10 00:29:32;;;;;;;1999.90;999.90;;;5.80;49.00;;;;;;5135341;28;20182;-73
2022/03/10 00:31:58;;;;;;;1999.90;999.90;;;6.00;49.30;;;;;;5134701;28;20276;-72
2022/03/10 00:34:24;;;;;;;1999.90;999.90;;;5.60;50.20;;;;;;5133362;28;20174;-73
2022/03/10 00:36:49;;;;;;;1999.90;999.90;;;5.70;51.00;;;;;;5133670;28;20419;-71
2022/03/10 00:39:15;;;;;;;1999.90;999.90;;;5.70;50.70;;;;;;5133822;28;20205;-74
2022/03/10 00:41:40;;;;;;;1999.90;999.90;;;5.60;51.90;;;;;;5117039;28;20743;-71
2022/03/10 00:44:06;;;;;;;1999.90;999.90;;;5.40;52.40;;;;;;5115329;28;20161;-70
2022/03/10 00:46:32;;;;;;;1999.90;999.90;;;5.30;53.50;;;;;;5115543;28;20166;-72
2022/03/10 00:48:57;;;;;;;1999.90;999.90;;;5.20;54.60;;;;;;5115466;28;20174;-72
2022/03/10 00:51:23;;;;;;;1999.90;999.90;;;5.10;55.00;;;;;;5115370;28;20663;-72
2022/03/10 00:53:48;;;;;;;1999.90;999.90;;;5.10;57.90;;;;;;5115374;28;20644;-72
2022/03/10 00:56:14;;;;;;;1999.90;999.90;;;5.00;60.80;;;;;;5115124;28;20170;-72
2022/03/10 00:58:39;;;;;;;1999.90;999.90;;;5.00;62.50;;;;;;5126793;28;20204;-74
2022/03/10 01:01:05;;;;;;;1999.90;999.90;;;5.10;59.50;;;;;;5137272;28;20186;-73
2022/03/10 01:03:31;;;;;;;1999.90;999.90;;;5.20;61.30;;;;;;5139145;28;20193;-71
2022/03/10 01:05:56;;;;;;;1999.90;999.90;;;5.20;59.10;;;;;;5138402;28;20182;-72
2022/03/10 01:08:22;;;;;;;1999.90;999.90;;;5.30;60.60;;;;;;5137770;28;20185;-73
2022/03/10 01:10:47;;;;;;;1999.90;999.90;;;5.40;60.60;;;;;;5121994;28;20185;-72
2022/03/10 01:13:15;;;;;;;1999.90;999.90;;;5.40;60.70;;;;;;5114989;28;20661;-72
2022/03/10 01:15:41;;;;;;;1999.90;999.90;;;5.40;61.00;;;;;;5114659;28;20166;-72
2022/03/10 01:18:08;;;;;;;1999.90;999.90;;;5.40;61.90;;;;;;5114850;27;20450;-72
2022/03/10 01:20:34;;;;;;;1999.90;999.90;;;5.40;63.70;;;;;;5114912;28;20431;-71
2022/03/10 01:23:00;;;;;;;1999.90;999.90;;;5.40;65.20;;;;;;5113545;28;20442;-71
2022/03/10 01:25:25;;;;;;;1999.90;999.90;;;5.40;64.90;;;;;;5113825;28;20928;-71
2022/03/10 01:27:51;;;;;;;1999.90;999.90;;;5.40;64.00;;;;;;5114354;28;20635;-71
2022/03/10 01:30:17;;;;;;;1999.90;999.90;;;5.30;63.60;;;;;;5114741;28;20166;-72
2022/03/10 01:32:44;;;;;;;1999.90;999.90;;;5.20;64.50;;;;;;5114417;28;20205;-72
2022/03/10 01:35:10;;;;;;;1999.90;999.90;;;5.10;66.80;;;;;;5114338;28;20407;-72
2022/03/10 01:37:39;;;;;;;1999.90;999.90;;;5.10;67.90;;;;;;5114542;28;20884;-73
2022/03/10 01:40:07;;;;;;;1999.90;999.90;;;4.80;68.90;;;;;;5114527;28;20530;-72
2022/03/10 01:42:32;;;;;;;1999.90;999.90;;;4.70;72.60;;;;;;5114239;28;20416;-72
2022/03/10 01:44:58;;;;;;;1999.90;999.90;;;4.50;76.00;;;;;;5114175;28;20452;-72
2022/03/10 01:47:23;;;;;;;1999.90;999.90;;;4.30;80.10;;;;;;5114339;28;20166;-72
2022/03/10 01:49:49;;;;;;;1999.90;999.90;;;4.10;85.70;;;;;;5114352;28;20185;-72
2022/03/10 01:52:16;;;;;;;1999.90;999.90;;;3.90;90.30;;;;;;5114252;28;20197;-72
2022/03/10 01:54:42;;;;;;;1999.90;999.90;;;3.90;92.20;;;;;;5113939;28;20185;-72
2022/03/10 01:57:09;;;;;;;1999.90;999.90;;;3.90;93.20;;;;;;5114072;28;20294;-72
2022/03/10 01:59:37;;;;;;;1999.90;999.90;;;3.90;93.40;;;;;;5114132;28;20448;-72
2022/03/10 02:02:03;;;;;;;1999.90;999.90;;;3.90;94.00;;;;;;5113988;27;20457;-72
2022/03/10 02:04:28;;;;;;;1999.90;999.90;;;4.00;93.80;;;;;;5113806;28;20934;-72
2022/03/10 02:06:54;;;;;;;1999.90;999.90;;;3.90;94.10;;;;;;5113980;28;20162;-72
2022/03/10 02:12:07;;;;;;;1999.90;999.90;;;4.00;96.10;;;;;;5113875;28;20195;-72
2022/03/10 02:17:20;;;;;;;1999.90;999.90;;;4.20;98.20;;;;;;5113801;28;20399;-72
2022/03/10 02:19:49;;;;;;;1999.90;999.90;;;4.20;97.30;;;;;;5113729;28;20407;-72
2022/03/10 02:22:15;;;;;;;1999.90;999.90;;;4.20;97.90;;;;;;5113617;28;21016;-72
2022/03/10 02:24:42;;;;;;;1999.90;999.90;;;4.20;97.90;;;;;;5113299;28;20407;-72
2022/03/10 02:27:20;;;;;;;1999.90;999.90;;;4.30;96.30;;;;;;5113646;28;20403;-72
2022/03/10 02:29:58;;;;;;;1999.90;999.90;;;4.30;95.20;;;;;;5113616;28;20399;-72
2022/03/10 02:32:24;;;;;;;1999.90;999.90;;;4.20;95.20;;;;;;5113298;28;20439;-72
2022/03/10 02:34:50;;;;;;;1999.90;999.90;;;4.10;96.70;;;;;;5111867;28;20198;-72
2022/03/10 02:37:17;;;;;;;1999.90;999.90;;;4.10;98.30;;;;;;5113001;28;20682;-72
2022/03/10 02:39:44;;;;;;;1999.90;999.90;;;4.10;97.50;;;;;;5113327;28;20173;-72
2022/03/10 02:42:12;;;;;;;1999.90;999.90;;;4.10;97.20;;;;;;5113329;28;20276;-72
2022/03/10 02:44:48;;;;;;;1999.90;999.90;;;4.10;97.10;;;;;;5112948;28;20399;-72
2022/03/10 02:47:15;;;;;;;1999.90;999.90;;;4.10;97.20;;;;;;5113221;28;20438;-72
2022/03/10 02:49:41;;;;;;;1999.90;999.90;;;4.10;98.30;;;;;;5113171;28;20430;-72
2022/03/10 02:52:08;;;;;;;1999.90;999.90;;;4.10;99.10;;;;;;5113008;28;20450;-72
2022/03/10 02:54:34;;;;;;;1999.90;999.90;;;4.00;99.90;;;;;;5112794;28;20177;-72
2022/03/10 02:56:59;;;;;;;1999.90;999.90;;;3.90;99.90;;;;;;5113069;28;20766;-72
2022/03/10 02:59:25;;;;;;;1999.90;999.90;;;4.00;99.90;;;;;;5112954;28;20407;-72
2022/03/10 03:01:51;;;;;;;1999.90;999.90;;;3.90;99.90;;;;;;5112869;28;20185;-72
2022/03/10 03:04:17;;;;;;;1999.90;999.90;;;3.90;99.90;;;;;;5127347;28;20391;-71
2022/03/10 03:06:43;;;;;;;1999.90;999.90;;;3.90;99.90;;;;;;5134210;28;20467;-72
2022/03/10 03:09:09;;;;;;;1999.90;999.90;;;4.00;99.90;;;;;;5134603;28;20202;-71
2022/03/10 03:11:35;;;;;;;1999.90;999.90;;;3.90;99.90;;;;;;5134082;28;20961;-72
2022/03/10 03:14:01;;;;;;;1999.90;999.90;;;3.80;99.90;;;;;;5111605;28;20528;-72
2022/03/10 03:16:27;;;;;;;1999.90;999.90;;;3.70;99.90;;;;;;5112781;28;20188;-71
2022/03/10 03:18:53;;;;;;;1999.90;999.90;;;3.70;99.90;;;;;;5112615;28;20191;-71
2022/03/10 03:21:19;;;;;;;1999.90;999.90;;;3.70;99.90;;;;;;5112551;28;20181;-71
2022/03/10 03:23:45;;;;;;;1999.90;999.90;;;3.60;99.90;;;;;;5112580;28;20154;-71
2022/03/10 03:26:11;;;;;;;1999.90;999.90;;;3.50;99.90;;;;;;5112282;28;20256;-71
2022/03/10 03:28:36;;;;;;;1999.90;999.90;;;3.50;99.90;;;;;;5112551;28;20165;-71
2022/03/10 03:31:03;;;;;;;1999.90;999.90;;;3.50;99.90;;;;;;5112341;28;20263;-72
2022/03/10 03:33:30;;;;;;;1999.90;999.90;;;3.40;99.90;;;;;;5112501;28;20236;-72
2022/03/10 03:35:56;;;;;;;1999.90;999.90;;;3.40;99.90;;;;;;5112205;28;20173;-72
2022/03/10 03:38:21;;;;;;;1999.90;999.90;;;3.40;99.90;;;;;;5112352;28;20874;-72
2022/03/10 03:40:47;;;;;;;1999.90;999.90;;;3.50;99.90;;;;;;5112296;28;20162;-72
2022/03/10 03:43:13;;;;;;;1999.90;999.90;;;3.50;99.90;;;;;;5112530;28;20162;-72
2022/03/10 03:45:39;;;;;;;1999.90;999.90;;;3.30;99.90;;;;;;5112077;28;20218;-72
2022/03/10 03:48:04;;;;;;;1999.90;999.90;;;3.30;99.90;;;;;;5112294;28;20641;-71
2022/03/10 03:50:30;;;;;;;1999.90;999.90;;;3.40;99.90;;;;;;5115532;28;20161;-73
2022/03/10 03:52:55;;;;;;;1999.90;999.90;;;3.40;99.90;;;;;;5116540;28;20181;-71
2022/03/10 03:55:21;;;;;;;1999.90;999.90;;;3.50;99.90;;;;;;5116258;28;20169;-71
2022/03/10 03:57:47;;;;;;;1999.90;999.90;;;3.50;99.90;;;;;;5116463;28;20187;-72
2022/03/10 04:00:13;;;;;;;1999.90;999.90;;;3.50;99.90;;;;;;5116540;28;20168;-72
2022/03/10 04:02:38;;;;;;;1999.90;999.90;;;3.50;99.90;;;;;;5116312;28;20276;-72
2022/03/10 04:05:05;;;;;;;1999.90;999.90;;;3.50;99.90;;;;;;5116146;28;20248;-72
2022/03/10 04:07:31;;;;;;;1999.90;999.90;;;3.50;99.90;;;;;;5116366;28;20562;-72
2022/03/10 04:09:57;;;;;;;1999.90;999.90;;;3.60;99.90;;;;;;5116230;28;20222;-72
2022/03/10 04:12:22;;;;;;;1999.90;999.90;;;3.60;99.90;;;;;;5116187;28;20542;-72
2022/03/10 04:14:48;;;;;;;1999.90;999.90;;;3.60;99.90;;;;;;5115862;28;20169;-72
2022/03/10 04:17:14;;;;;;;1999.90;999.90;;;3.60;99.90;;;;;;5116028;28;20166;-72
2022/03/10 04:19:39;;;;;;;1999.90;999.90;;;3.50;99.90;;;;;;5116101;28;20586;-72
2022/03/10 04:22:05;;;;;;;1999.90;999.90;;;3.50;99.90;;;;;;5115982;28;20194;-72
2022/03/10 04:24:30;;;;;;;1999.90;999.90;;;3.50;99.90;;;;;;5115672;28;20245;-72
2022/03/10 04:26:56;;;;;;;1999.90;999.90;;;3.40;99.90;;;;;;5115941;28;20571;-72
2022/03/10 04:29:22;;;;;;;1999.90;999.90;;;3.40;99.90;;;;;;5115891;28;20162;-72
2022/03/10 04:31:48;;;;;;;1999.90;999.90;;;3.30;99.90;;;;;;5137996;22;20227;-75
2022/03/10 04:34:13;;;;;;;1999.90;999.90;;;3.20;99.90;;;;;;5055010;28;20402;-75
2022/03/10 04:36:39;;;;;;;1999.90;999.90;;;3.30;99.90;;;;;;5055161;28;20499;-75
2022/03/10 04:39:05;;;;;;;1999.90;999.90;;;3.20;99.90;;;;;;5055014;28;20688;-75
2022/03/10 04:41:31;;;;;;;1999.90;999.90;;;3.20;99.90;;;;;;5050409;28;20422;-75
2022/03/10 04:43:57;;;;;;;1999.90;999.90;;;3.00;99.90;;;;;;5035075;28;20633;-75
2022/03/10 04:46:23;;;;;;;1999.90;999.90;;;2.90;99.90;;;;;;5034906;28;20820;-75
2022/03/10 04:48:49;;;;;;;1999.90;999.90;;;2.80;99.90;;;;;;5035038;28;20413;-75
2022/03/10 04:51:14;;;;;;;1999.90;999.90;;;2.80;99.90;;;;;;5034986;28;20546;-75
2022/03/10 04:53:40;;;;;;;1999.90;999.90;;;2.80;99.90;;;;;;5034828;28;20407;-75
2022/03/10 04:56:06;;;;;;;1999.90;999.90;;;2.70;99.90;;;;;;5034651;28;20175;-75
2022/03/10 04:58:32;;;;;;;1999.90;999.90;;;2.70;99.90;;;;;;5034791;28;20442;-75
2022/03/10 05:00:58;;;;;;;1999.90;999.90;;;2.70;99.90;;;;;;5034685;28;20399;-75
2022/03/10 05:03:23;;;;;;;1999.90;999.90;;;2.60;99.90;;;;;;5034841;28;20156;-75
2022/03/10 05:05:49;;;;;;;1999.90;999.90;;;2.50;99.90;;;;;;5034474;28;20172;-75
2022/03/10 05:08:14;;;;;;;1999.90;999.90;;;2.50;99.90;;;;;;5034672;28;20553;-75
2022/03/10 05:10:40;;;;;;;1999.90;999.90;;;2.40;99.90;;;;;;5034621;28;20168;-75
2022/03/10 05:13:06;;;;;;;1999.90;999.90;;;2.60;99.90;;;;;;5034550;28;20193;-75
2022/03/10 05:15:32;;;;;;;1999.90;999.90;;;2.30;99.90;;;;;;5034229;28;20595;-75
2022/03/10 05:17:59;;;;;;;1999.90;999.90;;;2.30;99.90;;;;;;5034326;28;20200;-75
2022/03/10 05:20:25;;;;;;;1999.90;999.90;;;2.30;99.90;;;;;;5034396;28;20438;-75
2022/03/10 05:22:56;;;;;;;1999.90;999.90;;;2.30;99.90;;;;;;5034220;28;20727;-75
2022/03/10 05:25:24;;;;;;;1999.90;999.90;;;2.20;99.90;;;;;;5034162;28;20180;-75
2022/03/10 05:27:50;;;;;;;1999.90;999.90;;;2.30;99.90;;;;;;5034286;28;20183;-75
2022/03/10 05:30:18;;;;;;;1999.90;999.90;;;2.30;99.90;;;;;;5034185;28;20184;-75
2022/03/10 05:32:43;;;;;;;1999.90;999.90;;;2.30;99.90;;;;;;5033964;28;20204;-75
2022/03/10 05:35:14;;;;;;;1999.90;999.90;;;2.30;99.90;;;;;;5033957;28;20644;-75
2022/03/10 05:37:40;;;;;;;1999.90;999.90;;;2.20;99.90;;;;;;5034082;28;20856;-74
2022/03/10 05:40:08;;;;;;;1999.90;999.90;;;2.30;99.90;;;;;;5034108;28;20222;-75
2022/03/10 05:42:37;;;;;;;1999.90;999.90;;;2.30;99.90;;;;;;5033927;28;20176;-75
2022/03/10 05:45:03;;;;;;;1999.90;999.90;;;2.30;99.90;;;;;;5033601;28;20741;-75
2022/03/10 05:47:28;;;;;;;1999.90;999.90;;;2.20;99.90;;;;;;5033874;28;20211;-75
2022/03/10 05:49:54;;;;;;;1999.90;999.90;;;2.20;99.90;;;;;;5033830;28;20468;-75
2022/03/10 05:52:20;;;;;;;1999.90;999.90;;;2.20;99.90;;;;;;5033806;28;20200;-75
2022/03/10 05:54:45;;;;;;;1999.90;999.90;;;2.10;99.90;;;;;;5033497;28;20587;-75
2022/03/10 05:57:11;;;;;;;1999.90;999.90;;;2.10;99.90;;;;;;5033735;28;20175;-75
2022/03/10 05:59:36;;;;;;;1999.90;999.90;;;2.00;99.90;;;;;;5033682;28;20513;-75
2022/03/10 06:02:02;;;;;;;1999.90;999.90;;;2.00;99.90;;;;;;5033542;28;20230;-75
2022/03/10 06:04:28;;;;;;;1999.90;999.90;;;1.90;99.90;;;;;;5033259;28;20157;-75
2022/03/10 06:06:53;;;;;;;1999.90;999.90;;;1.90;99.90;;;;;;5033388;28;20267;-75
2022/03/10 06:09:19;;;;;;;1999.90;999.90;;;1.90;99.90;;;;;;5033454;28;20191;-75
2022/03/10 06:11:44;;;;;;;1999.90;999.90;;;1.90;99.90;;;;;;5032670;28;20192;-75
2022/03/10 06:14:11;;;;;;;1999.90;999.90;;;1.90;99.90;;;;;;5033005;28;20177;-75
2022/03/10 06:16:37;;;;;;;1999.90;999.90;;;1.90;99.90;;;;;;5033299;28;20168;-75
2022/03/10 06:19:02;;;;;;;1999.90;999.90;;;2.00;99.90;;;;;;5033184;28;20291;-75
2022/03/10 06:21:28;;;;;;;1999.90;999.90;;;2.00;99.90;;;;;;5033096;28;20509;-75
2022/03/10 06:23:54;;;;;;;1999.90;999.90;;;2.10;99.90;;;;;;5033211;28;20164;-75
2022/03/10 06:26:20;;;;;;;1999.90;999.90;;;2.30;99.90;;;;;;5032866;28;20760;-75
2022/03/10 06:28:45;;;;;;;1999.90;999.90;;;2.30;99.90;;;;;;5033058;28;20231;-75
2022/03/10 06:31:11;;;;;;;1999.90;999.90;;;2.40;99.90;;;;;;5032818;28;20224;-75
2022/03/10 06:33:36;;;;;;;1999.90;999.90;;;2.40;99.90;;;;;;5034088;28;20172;-75
2022/03/10 06:36:03;;;;;;;1999.90;999.90;;;2.50;99.90;;;;;;5036580;28;20176;-75
2022/03/10 06:38:29;;;;;;;1999.90;999.90;;;2.60;99.90;;;;;;5037209;28;20196;-75
2022/03/10 06:40:54;;;;;;;1999.90;999.90;;;2.70;99.90;;;;;;5037005;28;20172;-75
2022/03/10 06:43:20;;;;;;;1999.90;999.90;;;2.80;99.90;;;;;;5036999;28;20184;-75
2022/03/10 06:45:46;;;;;;;1999.90;999.90;;;2.80;99.90;;;;;;5037210;28;20168;-75
2022/03/10 06:48:11;;;;;;;1999.90;999.90;;;2.90;99.90;;;;;;5037336;28;20183;-75
2022/03/10 06:50:38;;;;;;;1999.90;999.90;;;3.00;99.90;;;;;;5037353;28;20232;-75
2022/03/10 06:53:04;;;;;;;1999.90;999.90;;;3.00;99.90;;;;;;5032551;28;20275;-74
2022/03/10 06:55:30;;;;;;;1999.90;999.90;;;3.00;99.90;;;;;;5032299;28;20172;-74
2022/03/10 06:57:55;;;;;;;1999.90;999.90;;;3.10;99.90;;;;;;5032431;28;20557;-74
2022/03/10 07:00:22;;;;;;;1999.90;999.90;;;3.10;99.90;;;;;;5032530;28;20200;-75
2022/03/10 07:02:49;;;;;;;1999.90;999.90;;;3.20;99.90;;;;;;5032403;28;20419;-74
2022/03/10 07:05:15;;;;;;;1999.90;999.90;;;3.30;99.90;;;;;;5032103;28;20303;-74
2022/03/10 07:07:41;;;;;;;1999.90;999.90;;;3.30;99.90;;;;;;5032431;28;20402;-74
2022/03/10 07:10:08;;;;;;;1999.90;999.90;;;3.40;99.90;;;;;;5032282;28;20176;-75
2022/03/10 07:12:35;;;;;;;1999.90;999.90;;;3.50;99.90;;;;;;5032206;28;20513;-75
2022/03/10 07:15:00;;;;;;;1999.90;999.90;;;3.50;99.90;;;;;;5031991;28;20172;-75
2022/03/10 07:17:26;;;;;;;1999.90;999.90;;;3.50;99.90;;;;;;5032172;28;20179;-74
2022/03/10 07:19:51;;;;;;;1999.90;999.90;;;3.70;99.90;;;;;;5032132;28;20176;-75
2022/03/10 07:22:18;;;;;;;1999.90;999.90;;;3.70;99.90;;;;;;5032072;28;20176;-74
2022/03/10 07:24:45;;;;;;;1999.90;999.90;;;3.80;99.90;;;;;;5031017;28;20291;-74
2022/03/10 07:27:11;;;;;;;1999.90;999.90;;;3.80;99.90;;;;;;5032093;28;20912;-74
2022/03/10 07:29:36;;;;;;;1999.90;999.90;;;3.90;99.90;;;;;;5032161;28;20465;-74
2022/03/10 07:32:02;;;;;;;1999.90;999.90;;;4.00;99.90;;;;;;5031799;28;20446;-75
2022/03/10 07:34:28;;;;;;;1999.90;999.90;;;4.00;99.90;;;;;;5031713;28;20164;-75
2022/03/10 07:36:53;;;;;;;1999.90;999.90;;;4.10;99.90;;;;;;5031974;28;20700;-75
2022/03/10 07:39:19;;;;;;;1999.90;999.90;;;4.20;99.90;;;;;;5031839;28;20199;-74
2022/03/10 07:41:45;;;;;;;1999.90;999.90;;;4.30;99.90;;;;;;5031902;28;20824;-75
2022/03/10 07:44:11;;;;;;;1999.90;999.90;;;4.40;99.90;;;;;;5031610;28;20198;-74
2022/03/10 07:46:36;;;;;;;1999.90;999.90;;;4.50;99.90;;;;;;5031894;28;20164;-74
2022/03/10 07:49:04;;;;;;;1999.90;999.90;;;4.60;99.90;;;;;;5031770;28;20411;-75
2022/03/10 07:51:29;;;;;;;1999.90;999.90;;;4.70;99.90;;;;;;5031836;28;20188;-74
2022/03/10 07:53:55;;;;;;;1999.90;999.90;;;4.90;99.90;;;;;;5031712;28;20414;-75
2022/03/10 07:56:21;;;;;;;1999.90;999.90;;;5.00;99.90;;;;;;5031610;28;20191;-74
2022/03/10 07:58:46;;;;;;;1999.90;999.90;;;5.10;99.90;;;;;;5031733;28;20562;-75
2022/03/10 08:01:12;;;;;;;1999.90;999.90;;;5.20;99.90;;;;;;5031677;28;20168;-74
2022/03/10 08:03:38;;;;;;;1999.90;999.90;;;5.30;99.90;;;;;;5031712;28;20168;-75
2022/03/10 08:06:04;;;;;;;1999.90;999.90;;;5.40;99.90;;;;;;5031466;28;20543;-74
2022/03/10 08:08:30;;;;;;;1999.90;999.90;;;5.50;99.90;;;;;;5040654;28;20415;-75
2022/03/10 08:10:56;;;;;;;1999.90;999.90;;;5.70;99.90;;;;;;5044222;28;20427;-75
2022/03/10 08:13:26;;;;;;;1999.90;999.90;;;5.80;99.90;;;;;;5043839;28;20200;-75
2022/03/10 08:15:53;;;;;;;1999.90;999.90;;;5.90;99.90;;;;;;5043892;28;20191;-75
2022/03/10 08:18:18;;;;;;;1999.90;999.90;;;6.10;99.90;;;;;;5043785;28;20522;-75
2022/03/10 08:20:44;;;;;;;1999.90;999.90;;;6.30;99.90;;;;;;5045137;28;20438;-75
2022/03/10 08:23:10;;;;;;;1999.90;999.90;;;6.40;99.90;;;;;;5043998;28;20193;-75
2022/03/10 08:25:39;;;;;;;1999.90;999.90;;;6.60;99.90;;;;;;5041086;28;20168;-75
2022/03/10 08:28:05;;;;;;;1999.90;999.90;;;6.70;99.90;;;;;;5042079;28;20600;-75
2022/03/10 08:30:31;;;;;;;1999.90;999.90;;;6.80;99.90;;;;;;5040276;28;20430;-75
2022/03/10 08:32:57;;;;;;;1999.90;999.90;;;6.90;99.90;;;;;;5041142;28;20450;-74
2022/03/10 08:35:23;;;;;;;1999.90;999.90;;;7.10;99.90;;;;;;5043467;28;20169;-75
2022/03/10 08:37:49;;;;;;;1999.90;999.90;;;7.10;99.90;;;;;;5044743;28;20438;-75
2022/03/10 08:40:17;;;;;;;1999.90;999.90;;;7.30;99.90;;;;;;5044575;28;20403;-75
2022/03/10 08:42:47;;;;;;;1999.90;999.90;;;7.40;99.90;;;;;;5045967;28;20491;-75
2022/03/10 08:45:13;;;;;;;1999.90;999.90;;;7.60;99.90;;;;;;5026770;28;20479;-75
2022/03/10 08:47:39;;;;;;;1999.90;999.90;;;7.70;99.90;;;;;;5044088;28;20411;-75
2022/03/10 08:50:05;;;;;;;1999.90;999.90;;;7.80;99.90;;;;;;5044714;28;20784;-75
2022/03/10 08:52:31;;;;;;;1999.90;999.90;;;8.00;99.90;;;;;;5043136;28;20201;-75
2022/03/10 08:54:57;;;;;;;1999.90;999.90;;;8.10;99.90;;;;;;5042805;28;20423;-75
2022/03/10 08:57:22;;;;;;;1999.90;999.90;;;8.10;99.90;;;;;;5042830;28;20169;-75
2022/03/10 08:59:48;;;;;;;1999.90;999.90;;;8.30;99.90;;;;;;5043256;28;20585;-75
2022/03/10 09:02:14;;;;;;;1999.90;999.90;;;8.40;99.90;;;;;;5043758;28;20657;-75
2022/03/10 09:04:40;;;;;;;1999.90;999.90;;;8.60;99.90;;;;;;5042125;28;20177;-75
2022/03/10 09:07:05;;;;;;;1999.90;999.90;;;8.70;99.90;;;;;;5042305;28;20169;-75
2022/03/10 09:09:31;;;;;;;1999.90;999.90;;;8.80;99.90;;;;;;5044315;28;20408;-75
2022/03/10 09:11:57;;;;;;;1999.90;999.90;;;8.90;99.90;;;;;;5043190;28;20185;-75
2022/03/10 09:14:23;;;;;;;1999.90;999.90;;;9.00;99.90;;;;;;5042883;28;20546;-75
2022/03/10 09:16:51;;;;;;;1999.90;999.90;;;9.20;99.90;;;;;;5043426;28;20440;-75
2022/03/10 09:19:17;;;;;;;1999.90;999.90;;;9.20;99.20;;;;;;5042539;28;20198;-75
2022/03/10 09:21:42;;;;;;;1999.90;999.90;;;9.40;99.90;;;;;;5040200;28;20456;-74
2022/03/10 09:24:08;;;;;;;1999.90;999.90;;;9.50;98.60;;;;;;5040683;28;20743;-75
2022/03/10 09:26:34;;;;;;;1999.90;999.90;;;9.60;98.60;;;;;;5041169;28;20171;-75
2022/03/10 09:29:00;;;;;;;1999.90;999.90;;;9.70;96.80;;;;;;5041003;28;20756;-75
2022/03/10 09:31:26;;;;;;;1999.90;999.90;;;9.80;98.70;;;;;;5042640;28;20203;-75
2022/03/10 09:33:51;;;;;;;1999.90;999.90;;;10.00;98.40;;;;;;5043572;28;20175;-75
2022/03/10 09:36:17;;;;;;;1999.90;999.90;;;10.10;95.10;;;;;;5043399;28;20201;-75
2022/03/10 09:38:43;;;;;;;1999.90;999.90;;;10.30;95.00;;;;;;5046272;28;20210;-75
2022/03/10 09:41:08;;;;;;;1999.90;999.90;;;10.40;95.10;;;;;;5042821;28;20185;-75
2022/03/10 09:43:35;;;;;;;1999.90;999.90;;;10.50;94.80;;;;;;5041119;28;20410;-75
2022/03/10 09:46:02;;;;;;;1999.90;999.90;;;10.70;92.00;;;;;;5040244;28;20171;-75
2022/03/10 09:48:28;;;;;;;1999.90;999.90;;;10.70;92.00;;;;;;5040433;28;20935;-75
2022/03/10 09:50:55;;;;;;;1999.90;999.90;;;10.70;91.20;;;;;;5042305;28;20416;-75
2022/03/10 09:53:20;;;;;;;1999.90;999.90;;;10.80;91.30;;;;;;5043378;28;20426;-75
2022/03/10 09:55:46;;;;;;;1999.90;999.90;;;11.00;91.50;;;;;;5040663;28;20460;-75
2022/03/10 09:58:12;;;;;;;1999.90;999.90;;;11.10;89.60;;;;;;5041565;28;20195;-73
2022/03/10 10:00:37;;;;;;;1999.90;999.90;;;11.20;88.50;;;;;;5041414;28;20466;-72
2022/03/10 10:03:04;;;;;;;1999.90;999.90;;;11.40;84.70;;;;;;5041443;28;20488;-75
2022/03/10 10:05:32;;;;;;;1999.90;999.90;;;11.50;85.00;;;;;;5041216;28;20176;-75
2022/03/10 10:08:10;;;;;;;1999.90;999.90;;;11.70;83.70;;;;;;5042304;28;20933;-75
2022/03/10 10:10:39;;;;;;;1999.90;999.90;;;11.80;82.60;;;;;;5042123;28;20461;-75
2022/03/10 10:13:06;;;;;;;1999.90;999.90;;;12.00;82.50;;;;;;5041437;28;20431;-72
2022/03/10 10:15:34;;;;;;;1999.90;999.90;;;12.10;80.70;;;;;;5041143;28;20403;-72
2022/03/10 10:18:00;;;;;;;1999.90;999.90;;;12.20;77.10;;;;;;5040655;28;20442;-72
2022/03/10 10:20:43;;;;;;;1999.90;999.90;;;12.30;75.50;;;;;;5040957;28;20411;-72
2022/03/10 10:23:38;;;;;;;1999.90;999.90;;;12.30;76.70;;;;;;5040965;28;20951;-72
2022/03/10 10:26:09;;;;;;;1999.90;999.90;;;12.50;74.70;;;;;;5040864;28;20418;-72
2022/03/10 10:28:40;;;;;;;1999.90;999.90;;;12.60;74.70;;;;;;5040832;28;20420;-72
2022/03/10 10:31:07;;;;;;;1999.90;999.90;;;12.70;75.20;;;;;;5041037;28;20431;-73
2022/03/10 10:33:34;;;;;;;1999.90;999.90;;;12.90;72.50;;;;;;5042544;28;20416;-73
2022/03/10 10:36:13;;;;;;;1999.90;999.90;;;13.00;71.40;;;;;;5034152;28;20487;-72
2022/03/10 10:38:39;;;;;;;1999.90;999.90;;;13.10;69.80;;;;;;5022009;28;20541;-73
2022/03/10 10:41:28;;;;;;;1999.90;999.90;;;13.30;67.80;;;;;;5038361;28;20408;-72
2022/03/10 10:43:59;;;;;;;1999.90;999.90;;;13.40;68.80;;;;;;5032995;28;20410;-72
2022/03/10 10:46:31;;;;;;;1999.90;999.90;;;13.60;70.30;;;;;;5032978;28;20822;-72
2022/03/10 10:48:59;;;;;;;1999.90;999.90;;;13.60;67.30;;;;;;5033054;28;20492;-72
2022/03/10 10:51:26;;;;;;;1999.90;999.90;;;13.80;67.80;;;;;;5032732;28;20429;-72
2022/03/10 10:53:52;;;;;;;1999.90;999.90;;;13.90;67.00;;;;;;5032978;28;20408;-72
2022/03/10 10:56:19;;;;;;;1999.90;999.90;;;14.00;60.30;;;;;;5032623;28;20454;-72
2022/03/10 10:58:45;;;;;;;1999.90;999.90;;;14.00;60.40;;;;;;5037160;28;20512;-73
2022/03/10 11:01:29;;;;;;;1999.90;999.90;;;14.10;61.20;;;;;;5042118;28;20932;-73
2022/03/10 11:03:55;;;;;;;1999.90;999.90;;;14.20;62.30;;;;;;5034935;28;20844;-71
2022/03/10 11:06:21;;;;;;;1999.90;999.90;;;14.30;60.30;;;;;;5030889;28;20419;-72
2022/03/10 11:08:47;;;;;;;1999.90;999.90;;;14.50;62.50;;;;;;5031617;28;20497;-71
2022/03/10 11:11:17;;;;;;;1999.90;999.90;;;14.60;55.60;;;;;;5031510;28;20409;-71
2022/03/10 11:13:43;;;;;;;1999.90;999.90;;;14.80;57.90;;;;;;5031310;28;20773;-72
2022/03/10 11:16:11;;;;;;;1999.90;999.90;;;14.90;56.50;;;;;;5029847;28;20416;-72
2022/03/10 11:18:39;;;;;;;1999.90;999.90;;;14.90;55.40;;;;;;5031265;28;20499;-72
2022/03/10 11:21:21;;;;;;;1999.90;999.90;;;15.10;58.90;;;;;;5031703;28;20441;-72
2022/03/10 11:24:23;;;;;;;1999.90;999.90;;;15.30;54.50;;;;;;5036997;28;20407;-72
2022/03/10 11:27:08;;;;;;;1999.90;999.90;;;15.50;53.80;;;;;;5038268;28;20468;-72
2022/03/10 11:29:35;;;;;;;1999.90;999.90;;;15.70;54.00;;;;;;5029347;28;20436;-71
2022/03/10 11:32:03;;;;;;;1999.90;999.90;;;15.90;54.30;;;;;;5035956;28;20440;-72
2022/03/10 11:34:52;;;;;;;1999.90;999.90;;;15.90;53.00;;;;;;5044580;28;20409;-72
2022/03/10 11:37:43;;;;;;;1999.90;999.90;;;16.10;52.10;;;;;;5040889;28;20472;-72
2022/03/10 11:40:14;;;;;;;1999.90;999.90;;;16.20;49.90;;;;;;5034997;28;20416;-71
2022/03/10 11:42:41;;;;;;;1999.90;999.90;;;16.40;50.70;;;;;;5034024;28;20462;-71
2022/03/10 11:45:13;;;;;;;1999.90;999.90;;;16.70;48.90;;;;;;5034185;28;20410;-72
2022/03/10 11:47:39;;;;;;;1999.90;999.90;;;17.00;45.80;;;;;;5032820;28;20406;-72
2022/03/10 11:50:23;;;;;;;1999.90;999.90;;;17.50;46.00;;;;;;5034788;28;20435;-72
2022/03/10 11:53:01;;;;;;;1999.90;999.90;;;18.30;44.60;;;;;;5033947;28;20512;-70
2022/03/10 11:55:52;;;;;;;1999.90;999.90;;;19.20;41.30;;;;;;5034023;28;20407;-71
2022/03/10 11:58:36;;;;;;;1999.90;999.90;;;20.00;35.80;;;;;;5031993;28;20454;-72
2022/03/10 12:01:01;;;;;;;1999.90;999.90;;;20.50;30.00;;;;;;5030283;28;20934;-72
2022/03/10 12:03:28;;;;;;;1999.90;999.90;;;21.00;30.20;;;;;;5033259;28;20485;-72
2022/03/10 12:05:56;;;;;;;1999.90;999.90;;;21.50;27.50;;;;;;5041433;28;20215;-72
2022/03/10 12:08:23;;;;;;;1999.90;999.90;;;21.90;25.80;;;;;;5042129;28;20433;-73
2022/03/10 12:10:49;;;;;;;1999.90;999.90;;;22.30;24.40;;;;;;5045781;28;20411;-72